createdAt,value
2018-07-10T00:02:18.837Z,14.40
2018-07-10T00:07:06.035Z,14.30
2018-07-10T00:10:16.540Z,14.20
2018-07-10T00:12:45.191Z,14.20
2018-07-10T00:15:13.882Z,14.00
2018-07-10T00:17:42.327Z,13.90
2018-07-10T00:20:10.775Z,14.10
2018-07-10T00:22:39.332Z,14.10
2018-07-10T00:25:07.914Z,14.20
2018-07-10T00:27:36.411Z,14.20
2018-07-10T00:30:04.960Z,14.20
2018-07-10T00:32:33.505Z,14.20
2018-07-10T00:35:01.976Z,14.10
2018-07-10T00:37:30.529Z,14.10
2018-07-10T00:39:59.009Z,14.10
2018-07-10T00:42:27.671Z,14.20
2018-07-10T00:44:56.183Z,14.30
2018-07-10T00:47:24.770Z,14.30
2018-07-10T00:49:53.447Z,14.40
2018-07-10T00:52:31.550Z,14.30
2018-07-10T00:55:00.390Z,14.30
2018-07-10T00:57:29.665Z,14.40
2018-07-10T00:59:58.167Z,14.30
2018-07-10T01:02:26.817Z,14.30
2018-07-10T01:04:55.335Z,14.20
2018-07-10T01:07:24.487Z,14.20
2018-07-10T01:09:53.005Z,14.10
2018-07-10T01:12:21.499Z,14.10
2018-07-10T01:14:50.318Z,14.00
2018-07-10T01:17:19.468Z,14.00
2018-07-10T01:19:48.008Z,14.00
2018-07-10T01:22:16.745Z,14.00
2018-07-10T01:24:45.214Z,13.90
2018-07-10T01:27:14.244Z,13.80
2018-07-10T01:29:48.556Z,13.90
2018-07-10T01:32:17.751Z,13.80
2018-07-10T01:34:46.248Z,13.80
2018-07-10T01:37:15.146Z,13.80
2018-07-10T01:39:43.766Z,13.80
2018-07-10T01:42:12.247Z,13.70
2018-07-10T01:44:40.785Z,13.70
2018-07-10T01:47:09.426Z,13.60
2018-07-10T01:49:37.999Z,13.60
2018-07-10T01:52:06.821Z,13.50
2018-07-10T01:54:35.323Z,13.50
2018-07-10T01:57:03.978Z,13.40
2018-07-10T01:59:32.556Z,13.50
2018-07-10T02:02:01.114Z,13.40
2018-07-10T02:04:29.735Z,13.30
2018-07-10T02:06:58.714Z,13.30
2018-07-10T02:09:27.412Z,13.30
2018-07-10T02:11:55.910Z,13.30
2018-07-10T02:14:24.477Z,13.20
2018-07-10T02:16:52.939Z,13.20
2018-07-10T02:19:22.176Z,13.20
2018-07-10T02:21:50.675Z,13.10
2018-07-10T02:24:24.307Z,13.00
2018-07-10T02:26:53.515Z,13.00
2018-07-10T02:29:22.112Z,13.00
2018-07-10T02:31:50.965Z,12.90
2018-07-10T02:34:19.446Z,12.80
2018-07-10T02:36:48.040Z,12.80
2018-07-10T02:39:16.981Z,12.70
2018-07-10T02:41:45.533Z,12.80
2018-07-10T02:44:13.996Z,12.70
2018-07-10T02:46:42.811Z,12.60
2018-07-10T02:49:15.901Z,12.60
2018-07-10T02:52:03.140Z,12.50
2018-07-10T02:54:42.663Z,12.50
2018-07-10T02:57:12.967Z,12.40
2018-07-10T02:59:42.804Z,12.50
2018-07-10T03:02:21.257Z,12.50
2018-07-10T03:04:51.311Z,12.50
2018-07-10T03:07:19.804Z,12.50
2018-07-10T03:09:48.649Z,12.50
2018-07-10T03:12:17.954Z,12.60
2018-07-10T03:14:46.648Z,12.70
2018-07-10T03:17:19.341Z,12.60
2018-07-10T03:19:48.115Z,12.50
2018-07-10T03:22:17.122Z,12.50
2018-07-10T03:24:45.951Z,12.50
2018-07-10T03:27:14.443Z,12.50
2018-07-10T03:29:43.201Z,12.60
2018-07-10T03:32:11.938Z,12.60
2018-07-10T03:34:40.813Z,12.70
2018-07-10T03:37:09.418Z,12.70
2018-07-10T03:39:40.119Z,12.70
2018-07-10T03:42:09.225Z,12.60
2018-07-10T03:44:39.509Z,12.60
2018-07-10T03:47:08.055Z,12.50
2018-07-10T03:49:37.379Z,12.60
2018-07-10T03:52:05.879Z,12.60
2018-07-10T03:54:35.554Z,12.60
2018-07-10T03:57:05.005Z,12.60
2018-07-10T03:59:36.932Z,12.70
2018-07-10T04:02:05.424Z,12.70
2018-07-10T04:04:33.963Z,12.70
2018-07-10T04:07:02.714Z,12.60
2018-07-10T04:09:31.262Z,12.70
2018-07-10T04:11:59.940Z,12.70
2018-07-10T04:14:28.555Z,12.80
2018-07-10T04:16:57.254Z,12.90
2018-07-10T04:19:27.920Z,12.90
2018-07-10T04:21:57.493Z,12.90
2018-07-10T04:24:26.486Z,13.10
2018-07-10T04:27:32.861Z,13.10
2018-07-10T04:30:17.859Z,13.10
2018-07-10T04:32:46.429Z,13.10
2018-07-10T04:35:17.274Z,13.10
2018-07-10T04:37:49.248Z,13.20
2018-07-10T04:40:18.828Z,13.20
2018-07-10T04:42:55.298Z,13.30
2018-07-10T04:45:24.902Z,13.30
2018-07-10T04:47:57.273Z,13.40
2018-07-10T04:50:37.541Z,13.50
2018-07-10T04:53:09.393Z,13.60
2018-07-10T04:55:39.975Z,13.70
2018-07-10T04:58:13.825Z,13.80
2018-07-10T05:00:49.990Z,13.80
2018-07-10T05:03:19.459Z,13.90
2018-07-10T05:05:48.143Z,14.10
2018-07-10T05:08:19.327Z,14.10
2018-07-10T05:10:48.171Z,14.20
2018-07-10T05:13:18.239Z,14.30
2018-07-10T05:15:50.997Z,14.60
2018-07-10T05:18:20.916Z,14.70
2018-07-10T05:23:18.363Z,14.70
2018-07-10T05:25:51.383Z,14.80
2018-07-10T05:28:20.443Z,14.80
2018-07-10T05:30:49.356Z,15.00
2018-07-10T05:33:21.174Z,15.20
2018-07-10T05:35:50.628Z,15.30
2018-07-10T05:39:31.227Z,15.40
2018-07-10T05:41:59.855Z,15.60
2018-07-10T05:44:28.583Z,15.60
2018-07-10T05:47:01.160Z,15.40
2018-07-10T05:49:31.443Z,15.40
2018-07-10T05:52:00.013Z,15.40
2018-07-10T05:54:29.100Z,15.40
2018-07-10T05:56:57.600Z,15.50
2018-07-10T05:59:26.132Z,15.60
2018-07-10T06:01:55.513Z,15.70
2018-07-10T06:04:24.015Z,15.70
2018-07-10T06:06:52.957Z,15.70
2018-07-10T06:09:21.396Z,16.00
2018-07-10T06:11:49.948Z,16.10
2018-07-10T06:14:18.640Z,16.20
2018-07-10T06:16:47.303Z,16.40
2018-07-10T06:19:16.702Z,16.50
2018-07-10T06:21:47.767Z,16.40
2018-07-10T06:24:17.709Z,16.30
2018-07-10T06:26:49.485Z,16.40
2018-07-10T06:29:21.293Z,16.40
2018-07-10T06:31:54.867Z,16.50
2018-07-10T06:34:29.456Z,16.50
2018-07-10T06:37:04.632Z,16.70
2018-07-10T06:39:33.088Z,16.90
2018-07-10T06:42:13.871Z,17.10
2018-07-10T06:44:46.642Z,17.20
2018-07-10T06:47:20.531Z,17.40
2018-07-10T06:49:49.980Z,17.50
2018-07-10T06:52:19.849Z,17.60
2018-07-10T06:55:08.609Z,17.60
2018-07-10T06:57:42.913Z,17.70
2018-07-10T07:00:11.677Z,17.60
2018-07-10T07:02:40.595Z,17.70
2018-07-10T07:05:09.387Z,17.90
2018-07-10T07:07:39.006Z,18.00
2018-07-10T07:10:09.283Z,18.20
2018-07-10T07:12:38.794Z,18.30
2018-07-10T07:15:09.248Z,18.30
2018-07-10T07:17:41.424Z,18.60
2018-07-10T07:20:09.984Z,18.60
2018-07-10T07:22:38.446Z,18.40
2018-07-10T07:25:06.952Z,18.40
2018-07-10T07:27:35.547Z,18.50
2018-07-10T07:30:04.090Z,18.40
2018-07-10T07:32:32.691Z,18.40
2018-07-10T07:35:01.340Z,18.50
2018-07-10T07:37:31.631Z,18.60
2018-07-10T07:40:00.141Z,18.60
2018-07-10T07:42:30.231Z,18.60
2018-07-10T07:44:59.088Z,18.80
2018-07-10T07:47:29.502Z,18.90
2018-07-10T07:49:58.114Z,18.90
2018-07-10T07:52:28.724Z,19.00
2018-07-10T07:54:58.026Z,18.90
2018-07-10T07:57:26.991Z,19.00
2018-07-10T07:59:55.862Z,19.00
2018-07-10T08:02:24.847Z,19.00
2018-07-10T08:04:54.099Z,18.90
2018-07-10T08:07:24.591Z,19.00
2018-07-10T08:09:55.555Z,19.20
2018-07-10T08:12:25.135Z,19.30
2018-07-10T08:14:54.235Z,19.20
2018-07-10T08:17:23.411Z,19.40
2018-07-10T08:19:52.680Z,19.70
2018-07-10T08:22:21.330Z,19.80
2018-07-10T08:24:49.858Z,19.90
2018-07-10T08:27:18.418Z,19.80
2018-07-10T08:29:47.472Z,19.90
2018-07-10T08:32:16.018Z,20.00
2018-07-10T08:34:44.579Z,20.00
2018-07-10T08:37:13.411Z,20.20
2018-07-10T08:39:41.923Z,20.10
2018-07-10T08:42:10.429Z,20.10
2018-07-10T08:44:39.106Z,20.30
2018-07-10T08:47:09.426Z,20.60
2018-07-10T08:49:39.480Z,20.90
2018-07-10T08:52:10.839Z,20.90
2018-07-10T08:54:39.539Z,21.00
2018-07-10T08:57:08.117Z,20.70
2018-07-10T08:59:38.279Z,20.40
2018-07-10T09:02:07.599Z,20.10
2018-07-10T09:04:36.976Z,19.90
2018-07-10T09:07:06.893Z,19.60
2018-07-10T09:09:35.381Z,19.50
2018-07-10T09:12:03.852Z,19.50
2018-07-10T09:14:32.374Z,19.60
2018-07-10T09:17:00.986Z,19.70
2018-07-10T09:19:31.148Z,19.70
2018-07-10T09:22:06.146Z,19.80
2018-07-10T09:24:36.420Z,20.20
2018-07-10T09:27:08.195Z,20.40
2018-07-10T09:29:37.275Z,20.70
2018-07-10T09:32:06.516Z,21.10
2018-07-10T09:34:35.076Z,21.30
2018-07-10T09:37:03.629Z,21.40
2018-07-10T09:39:32.159Z,21.20
2018-07-10T09:42:00.700Z,21.10
2018-07-10T09:44:29.233Z,21.10
2018-07-10T09:46:58.074Z,21.40
2018-07-10T09:49:26.657Z,21.60
2018-07-10T09:51:55.222Z,22.00
2018-07-10T09:54:23.754Z,22.30
2018-07-10T09:56:52.268Z,22.60
2018-07-10T09:59:20.801Z,22.40
2018-07-10T10:01:50.443Z,21.70
2018-07-10T10:04:18.998Z,21.20
2018-07-10T10:06:47.527Z,21.00
2018-07-10T10:09:16.075Z,20.60
2018-07-10T10:11:44.646Z,20.00
2018-07-10T10:14:13.335Z,19.70
2018-07-10T10:16:41.838Z,19.30
2018-07-10T10:19:11.016Z,19.20
2018-07-10T10:21:39.591Z,18.90
2018-07-10T10:26:36.463Z,18.40
2018-07-10T10:29:05.018Z,18.20
2018-07-10T10:31:33.483Z,17.80
2018-07-10T10:34:02.095Z,17.60
2018-07-10T10:36:31.353Z,17.30
2018-07-10T10:38:59.963Z,17.20
2018-07-10T10:41:29.503Z,16.90
2018-07-10T10:43:58.906Z,16.40
2018-07-10T10:46:27.722Z,16.20
2018-07-10T10:48:58.651Z,16.00
2018-07-10T10:51:27.358Z,15.70
2018-07-10T10:53:55.954Z,15.60
2018-07-10T10:56:24.859Z,15.70
2018-07-10T10:58:53.451Z,15.80
2018-07-10T11:03:50.700Z,16.00
2018-07-10T11:06:19.432Z,16.00
2018-07-10T11:08:48.205Z,16.20
2018-07-10T11:11:16.899Z,16.30
2018-07-10T11:13:45.880Z,16.40
2018-07-10T11:16:14.463Z,16.30
2018-07-10T11:18:48.240Z,16.80
2018-07-10T11:21:28.449Z,17.30
2018-07-10T11:23:58.886Z,17.70
2018-07-10T11:26:37.001Z,17.80
2018-07-10T11:29:06.614Z,18.00
2018-07-10T11:31:35.803Z,18.00
2018-07-10T11:34:04.776Z,18.50
2018-07-10T11:36:33.306Z,18.90
2018-07-10T11:39:05.982Z,18.70
2018-07-10T11:41:38.788Z,19.30
2018-07-10T11:44:08.672Z,19.50
2018-07-10T11:46:37.959Z,19.50
2018-07-10T11:49:06.938Z,18.90
2018-07-10T11:51:35.550Z,18.60
2018-07-10T11:54:04.750Z,18.80
2018-07-10T11:56:33.420Z,19.20
2018-07-10T11:59:02.813Z,19.60
2018-07-10T12:01:33.103Z,19.70
2018-07-10T12:04:01.867Z,20.00
2018-07-10T12:06:30.393Z,20.00
2018-07-10T12:09:02.193Z,20.00
2018-07-10T12:11:31.919Z,20.10
2018-07-10T12:14:00.435Z,20.30
2018-07-10T12:16:29.168Z,20.40
2018-07-10T12:18:57.880Z,19.80
2018-07-10T12:21:26.398Z,19.70
2018-07-10T12:23:55.032Z,19.80
2018-07-10T12:26:23.851Z,20.70
2018-07-10T12:28:52.373Z,20.90
2018-07-10T12:31:21.127Z,20.30
2018-07-10T12:33:49.739Z,21.00
2018-07-10T12:36:18.359Z,21.50
2018-07-10T12:38:46.943Z,21.70
2018-07-10T12:41:15.726Z,21.30
2018-07-10T12:43:44.195Z,21.00
2018-07-10T12:46:13.349Z,20.50
2018-07-10T12:48:41.977Z,20.60
2018-07-10T12:51:10.695Z,20.40
2018-07-10T12:53:39.540Z,20.40
2018-07-10T12:56:08.132Z,20.60
2018-07-10T12:58:40.167Z,21.00
2018-07-10T13:01:09.302Z,21.50
2018-07-10T13:03:38.327Z,22.10
2018-07-10T13:06:06.776Z,22.10
2018-07-10T13:08:35.273Z,22.10
2018-07-10T13:11:03.927Z,21.40
2018-07-10T13:13:32.639Z,20.80
2018-07-10T13:16:01.146Z,20.90
2018-07-10T13:18:31.635Z,21.10
2018-07-10T13:21:00.563Z,20.90
2018-07-10T13:23:29.440Z,21.30
2018-07-10T13:25:58.356Z,21.50
2018-07-10T13:28:26.957Z,21.50
2018-07-10T13:30:55.494Z,21.60
2018-07-10T13:33:24.104Z,22.00
2018-07-10T13:35:52.703Z,22.10
2018-07-10T13:38:22.376Z,22.00
2018-07-10T13:40:52.930Z,21.90
2018-07-10T13:43:21.586Z,22.00
2018-07-10T13:45:50.154Z,22.30
2018-07-10T13:48:19.194Z,22.30
2018-07-10T13:50:47.780Z,22.10
2018-07-10T13:53:16.298Z,22.10
2018-07-10T13:55:44.816Z,21.90
2018-07-10T13:58:17.629Z,21.50
2018-07-10T14:00:50.802Z,21.80
2018-07-10T14:03:19.640Z,21.80
2018-07-10T14:05:48.111Z,22.20
2018-07-10T14:08:16.702Z,22.00
2018-07-10T14:10:45.354Z,22.80
2018-07-10T14:13:13.920Z,23.30
2018-07-10T14:15:42.507Z,23.90
2018-07-10T14:18:11.387Z,24.70
2018-07-10T14:21:12.248Z,25.70
2018-07-10T14:23:40.799Z,26.40
2018-07-10T14:26:09.465Z,26.80
2018-07-10T14:28:38.742Z,27.10
2018-07-10T14:31:07.261Z,27.60
2018-07-10T14:33:35.863Z,27.80
2018-07-10T14:36:04.392Z,26.20
2018-07-10T14:38:32.928Z,26.80
2018-07-10T14:41:06.511Z,26.90
2018-07-10T14:43:40.195Z,26.90
2018-07-10T14:46:11.591Z,27.00
2018-07-10T14:48:44.460Z,25.90
2018-07-10T14:51:14.355Z,24.40
2018-07-10T14:53:43.402Z,23.90
2018-07-10T14:56:12.228Z,24.00
2018-07-10T14:58:40.807Z,25.30
2018-07-10T15:01:09.381Z,25.90
2018-07-10T15:03:37.963Z,26.50
2018-07-10T15:06:06.405Z,27.60
2018-07-10T15:08:35.016Z,27.40
2018-07-10T15:11:03.575Z,26.70
2018-07-10T15:13:42.147Z,26.70
2018-07-10T15:16:10.618Z,25.80
2018-07-10T15:18:41.135Z,26.40
2018-07-10T15:21:10.230Z,26.30
2018-07-10T15:23:38.858Z,26.30
2018-07-10T15:26:07.411Z,27.30
2018-07-10T15:31:06.571Z,27.90
2018-07-10T15:33:35.203Z,27.90
2018-07-10T15:36:03.871Z,28.70
2018-07-10T15:38:32.699Z,29.30
2018-07-10T15:41:01.358Z,28.50
2018-07-10T15:45:58.117Z,29.70
2018-07-10T15:48:26.776Z,30.50
2018-07-10T15:50:55.592Z,30.40
2018-07-10T15:53:24.287Z,29.40
2018-07-10T15:55:52.851Z,28.80
2018-07-10T15:58:21.430Z,29.60
2018-07-10T16:00:50.131Z,29.90
2018-07-10T16:03:18.975Z,29.00
2018-07-10T16:05:47.868Z,28.80
2018-07-10T16:08:19.024Z,28.90
2018-07-10T16:10:52.648Z,28.90
2018-07-10T16:13:22.713Z,29.20
2018-07-10T16:15:56.543Z,28.70
2018-07-10T16:18:26.877Z,29.50
2018-07-10T16:21:00.374Z,29.10
2018-07-10T16:23:29.964Z,28.20
2018-07-10T16:26:19.872Z,28.40
2018-07-10T16:28:48.463Z,28.10
2018-07-10T16:31:18.663Z,29.10
2018-07-10T16:33:47.209Z,29.40
2018-07-10T16:36:16.624Z,29.20
2018-07-10T16:38:45.936Z,28.90
2018-07-10T16:41:23.269Z,27.60
2018-07-10T16:43:53.789Z,26.70
2018-07-10T16:46:25.662Z,26.80
2018-07-10T16:49:03.243Z,26.90
2018-07-10T16:51:40.768Z,27.60
2018-07-10T16:54:09.415Z,28.30
2018-07-10T16:56:38.154Z,28.70
2018-07-10T16:59:06.832Z,28.90
2018-07-10T17:01:35.768Z,28.70
2018-07-10T17:04:04.747Z,27.50
2018-07-10T17:06:33.399Z,27.90
2018-07-10T17:09:02.159Z,28.20
2018-07-10T17:11:30.928Z,27.20
2018-07-10T17:13:59.422Z,27.20
2018-07-10T17:16:29.006Z,27.50
2018-07-10T17:18:57.804Z,27.90
2018-07-10T17:21:27.863Z,28.00
2018-07-10T17:23:57.495Z,28.40
2018-07-10T17:26:26.116Z,28.50
2018-07-10T17:28:55.321Z,28.20
2018-07-10T17:31:24.159Z,28.00
2018-07-10T17:33:52.817Z,27.70
2018-07-10T17:36:23.319Z,27.20
2018-07-10T17:38:51.986Z,27.40
2018-07-10T17:41:21.020Z,28.10
2018-07-10T17:43:49.800Z,28.50
2018-07-10T17:46:18.564Z,27.80
2018-07-10T17:48:47.577Z,27.90
2018-07-10T17:51:16.324Z,28.10
2018-07-10T17:53:44.910Z,28.40
2018-07-10T17:56:13.715Z,28.70
2018-07-10T17:58:42.335Z,28.20
2018-07-10T18:01:10.957Z,28.00
2018-07-10T18:03:39.468Z,27.50
2018-07-10T18:06:08.204Z,26.20
2018-07-10T18:08:37.107Z,24.80
2018-07-10T18:11:06.059Z,23.30
2018-07-10T18:13:34.639Z,22.30
2018-07-10T18:16:03.251Z,21.50
2018-07-10T18:18:31.801Z,20.90
2018-07-10T18:21:00.474Z,20.60
2018-07-10T18:23:29.046Z,20.30
2018-07-10T18:25:57.598Z,20.10
2018-07-10T18:28:26.316Z,19.90
2018-07-10T18:30:54.982Z,19.80
2018-07-10T18:33:23.706Z,19.80
2018-07-10T18:35:52.438Z,19.70
2018-07-10T18:38:21.106Z,19.70
2018-07-10T18:40:49.827Z,19.50
2018-07-10T18:43:18.506Z,19.30
2018-07-10T18:45:47.248Z,19.10
2018-07-10T18:48:21.671Z,18.80
2018-07-10T18:50:50.300Z,18.70
2018-07-10T18:53:19.527Z,18.50
2018-07-10T18:55:49.323Z,18.40
2018-07-10T18:59:21.566Z,18.10
2018-07-10T19:01:56.548Z,18.10
2018-07-10T19:04:31.921Z,18.10
2018-07-10T19:07:00.552Z,17.80
2018-07-10T19:09:35.012Z,17.70
2018-07-10T19:12:09.736Z,17.50
2018-07-10T19:14:38.556Z,17.10
2018-07-10T19:17:13.044Z,16.80
2018-07-10T19:19:45.418Z,16.50
2018-07-10T19:22:15.993Z,16.30
2018-07-10T19:24:44.835Z,16.10
2018-07-10T19:27:22.407Z,15.90
2018-07-10T19:29:53.904Z,15.60
2018-07-10T19:32:22.969Z,15.50
2018-07-10T19:34:57.031Z,15.40
2018-07-10T19:37:28.284Z,15.20
2018-07-10T19:39:57.217Z,15.00
2018-07-10T19:42:26.861Z,14.80
2018-07-10T19:44:56.168Z,14.80
2018-07-10T19:47:25.972Z,14.70
2018-07-10T19:49:56.888Z,14.60
2018-07-10T19:52:25.731Z,14.50
2018-07-10T19:54:55.372Z,14.20
2018-07-10T19:58:45.371Z,14.00
2018-07-10T20:01:24.414Z,13.90
2018-07-10T20:06:27.300Z,13.50
2018-07-10T20:09:01.027Z,13.40
2018-07-10T20:11:44.789Z,13.40
2018-07-10T20:14:17.645Z,13.50
2018-07-10T20:16:53.639Z,13.40
2018-07-10T20:19:29.866Z,13.30
2018-07-10T20:24:15.814Z,13.20
2018-07-10T20:26:56.138Z,12.80
2018-07-10T20:29:46.875Z,12.50
2018-07-10T20:32:20.591Z,12.60
2018-07-10T20:34:56.671Z,12.30
2018-07-10T20:37:28.783Z,12.20
2018-07-10T20:39:57.496Z,12.20
2018-07-10T20:42:31.853Z,12.10
2018-07-10T20:45:05.821Z,12.00
2018-07-10T20:47:50.254Z,11.90
2018-07-10T20:50:39.345Z,11.80
2018-07-10T20:53:14.234Z,11.70
2018-07-10T20:55:52.490Z,11.80
2018-07-10T20:58:23.889Z,11.60
2018-07-10T21:01:07.214Z,11.50
2018-07-10T21:03:54.472Z,11.40
2018-07-10T21:06:32.343Z,11.40
2018-07-10T21:09:08.548Z,11.40
2018-07-10T21:12:11.922Z,11.30
2018-07-10T21:15:03.208Z,11.30
2018-07-10T21:17:35.849Z,11.40
2018-07-10T21:20:10.763Z,11.20
2018-07-10T21:22:51.835Z,11.10
2018-07-10T21:25:23.603Z,11.20
2018-07-10T21:28:32.479Z,11.00
2018-07-10T21:31:34.298Z,10.90
2018-07-10T21:34:09.855Z,10.80
2018-07-10T21:37:52.135Z,10.70
2018-07-10T21:41:29.841Z,10.70
2018-07-10T21:44:06.073Z,10.70
2018-07-10T21:46:39.912Z,10.60
2018-07-10T21:49:46.248Z,10.50
2018-07-10T21:52:14.786Z,10.50
2018-07-10T21:54:43.413Z,10.40
2018-07-10T21:57:14.893Z,10.40
2018-07-10T21:59:47.937Z,10.30
2018-07-10T22:02:16.759Z,10.30
2018-07-10T22:04:45.959Z,10.30
2018-07-10T22:07:15.930Z,10.20
2018-07-10T22:09:45.117Z,10.20
2018-07-10T22:12:15.741Z,10.10
2018-07-10T22:14:44.831Z,10.10
2018-07-10T22:17:30.706Z,10.20
2018-07-10T22:19:59.323Z,10.20
2018-07-10T22:22:30.666Z,10.20
2018-07-10T22:27:28.599Z,10.20
2018-07-10T22:30:03.839Z,10.10
2018-07-10T22:32:40.628Z,10.10
2018-07-10T22:35:09.323Z,10.00
2018-07-10T22:37:37.914Z,9.90
2018-07-10T22:40:07.734Z,9.80
2018-07-10T22:42:36.599Z,9.70
2018-07-10T22:45:05.225Z,9.50
2018-07-10T22:47:39.950Z,9.60
2018-07-10T22:50:12.834Z,9.60
2018-07-10T22:52:58.306Z,9.60
2018-07-10T22:55:28.348Z,9.50
2018-07-10T22:58:01.520Z,9.60
2018-07-10T23:00:31.903Z,9.50
2018-07-10T23:03:01.122Z,9.50
2018-07-10T23:05:29.669Z,9.50
2018-07-10T23:07:58.332Z,9.40
2018-07-10T23:10:27.507Z,9.30
2018-07-10T23:12:56.060Z,9.30
2018-07-10T23:15:24.759Z,9.30
2018-07-10T23:17:53.335Z,9.30
2018-07-10T23:20:22.816Z,9.20
2018-07-10T23:22:56.731Z,9.20
2018-07-10T23:25:26.526Z,9.10
2018-07-10T23:28:03.595Z,9.10
2018-07-10T23:30:39.091Z,9.20
2018-07-10T23:33:11.580Z,9.10
2018-07-10T23:35:41.755Z,9.20
2018-07-10T23:38:16.111Z,9.30
2018-07-10T23:43:12.912Z,9.20
2018-07-10T23:45:41.415Z,9.10
2018-07-10T23:48:10.114Z,9.00
2018-07-10T23:50:39.067Z,9.10
2018-07-10T23:53:45.295Z,8.90
2018-07-10T23:56:13.949Z,8.80
2018-07-10T23:58:42.480Z,8.70
